Home > Products > Valid Products > TAF

000
FTUS41 KGYX 181720
TAFLEB
TAF
KLEB 181720Z 1818/1918 VRB03KT P6SM BKN020 OVC030
     FM181900 31005KT P6SM OVC025
     FM182100 33005KT P6SM BKN050=



000
FTUS41 KGYX 181720
TAFPSM
TAF
KPSM 181720Z 1818/1918 28013G20KT P6SM BKN030 BKN080
     FM181830 28013G20KT P6SM BKN080
     FM182300 29009KT P6SM SCT250=



000
FTUS41 KGYX 181720
TAFPWM
TAF
KPWM 181720Z 1818/1918 30010KT P6SM SCT025 BKN080
     FM190600 33005KT P6SM SCT250=



000
FTUS41 KGYX 181720
TAFCON
TAF
KCON 181720Z 1818/1918 30012KT P6SM BKN025
     FM181830 30012G17KT P6SM BKN035
     FM182300 30006KT P6SM SCT250=



000
FTUS41 KGYX 181720
TAFAUG
TAF
KAUG 181720Z 1818/1918 31008KT P6SM BKN035 OVC050=



000
FTUS41 KGYX 181431 AAA
TAFPWM
TAF AMD
KPWM 181431Z 1815/1912 30009KT P6SM OVC035=



000
FTUS41 KGYX 181431 AAB
TAFAUG
TAF AMD
KAUG 181431Z 1815/1912 32006KT 3SM -SN BR BKN007 OVC012
     FM181700 30010G18KT P6SM BKN035
     FM182100 31008KT P6SM OVC050=



000
FTUS41 KGYX 181430 AAA
TAFLEB
TAF AMD
KLEB 181430Z 1815/1912 32005KT P6SM OVC025
     FM182200 33006KT P6SM SCT050 OVC100=



000
FTUS41 KGYX 181217 AAA
TAFAUG
TAF AMD
KAUG 181217Z 1812/1912 32006KT 3SM -SN BR OVC015
     FM181700 30010G18KT P6SM BKN035
     FM182100 31008KT P6SM OVC050=



000
FTUS41 KGYX 181217 AAA
TAFAUG
TAF AMD
KAUG 181217Z 1812/1912 32006KT 3SM -SN BR OVC015
     FM181700 30010G18KT P6SM BKN035
     FM182100 31008KT P6SM OVC050=



000
FTUS41 KGYX 181215 AAA
TAFPSM
TAF AMD
KPSM 181215Z 1812/1912 27010KT P6SM -RA FEW010 BKN025 OVC040
     FM181400 28012G18KT P6SM -SHRA BKN050
     FM181800 29009KT P6SM SCT050 BKN100=



000
FTUS41 KGYX 181215 AAA
TAFPSM
TAF AMD
KPSM 181215Z 1812/1912 27010KT P6SM -RA FEW010 BKN025 OVC040
     FM181400 28012G18KT P6SM -SHRA BKN050
     FM181800 29009KT P6SM SCT050 BKN100=



000
FTUS41 KGYX 181137
TAFCON
TAF
KCON 181137Z 1812/1912 29009KT P6SM -RA BKN025 OVC060
     FM181300 30010KT P6SM OVC050
     FM181700 30010G17KT P6SM BKN050
     FM190200 30006KT P6SM OVC100=



000
FTUS41 KGYX 181137
TAFPWM
TAF
KPWM 181137Z 1812/1912 29008KT P6SM -RA OVC025
     FM181700 31010G17KT P6SM BKN040
     FM190300 31008KT P6SM OVC100=



000
FTUS41 KGYX 181137
TAFAUG
TAF
KAUG 181137Z 1812/1912 33006KT 2SM -SN BR OVC006
     FM181300 32006KT 3SM -SN BR OVC015
     FM181700 30010G18KT P6SM BKN035
     FM182100 31008KT P6SM OVC050=



000
FTUS41 KGYX 181137
TAFPSM
TAF
KPSM 181137Z 1812/1912 27010KT P6SM -RA FEW010 BKN015 OVC040
     FM181400 28010G18KT P6SM -SHRA BKN050
     FM181800 29009KT P6SM SCT050 BKN100=



000
FTUS41 KGYX 181137
TAFLEB
TAF
KLEB 181137Z 1812/1912 00000KT P6SM OVC025
     FM181300 32007G14KT P6SM OVC040
     FM182200 33006KT P6SM SCT050 OVC100=



000
FTUS41 KGYX 180916 AAA
TAFPSM
TAF AMD
KPSM 180916Z 1809/1906 27010KT P6SM -RA SCT006 BKN015 OVC030
      TEMPO 1809/1813 BKN007
     FM181300 29010G18KT P6SM BKN050
     FM182100 29009KT P6SM SCT050 BKN100=



000
FTUS41 KGYX 180916 AAA
TAFPWM
TAF AMD
KPWM 180916Z 1809/1906 30004KT P6SM -SN OVC025
     FM181300 30009KT P6SM -RA OVC025
     FM181700 31010G17KT P6SM BKN040
     FM190300 31008KT P6SM OVC100=



000
FTUS41 KGYX 180916 AAB
TAFLEB
TAF AMD
KLEB 180916Z 1809/1906 00000KT 5SM BR OVC025
      TEMPO 1809/1813 1SM BR
     FM181300 32007G14KT 6SM BR OVC050
     FM181900 31009G16KT P6SM BKN035
     FM182200 33006KT P6SM SCT050 OVC100=



000
FTUS41 KGYX 180916 AAA
TAFAUG
TAF AMD
KAUG 180916Z 1809/1906 33008KT 5SM -SN BR OVC007
      TEMPO 1809/1813 6SM -SN BR SCT006 OVC020
     FM181300 32006KT 3SM BR OVC015
     FM181700 30010G18KT P6SM BKN035
     FM182100 31008KT P6SM OVC050=



000
FTUS41 KGYX 180916 AAA
TAFCON
TAF AMD
KCON 180916Z 1809/1906 29009KT P6SM -RA BKN025 OVC060
     FM181100 30009KT 4SM BR SCT025 OVC050
     FM181300 30010KT P6SM OVC050
     FM181700 30010G17KT P6SM BKN050
     FM190200 30006KT P6SM OVC100=



000
FTUS41 KGYX 180916 AAB
TAFLEB
TAF AMD
KLEB 180916Z 1809/1906 00000KT 5SM BR OVC025
      TEMPO 1809/1813 1SM BR
     FM181300 32007G14KT 6SM BR OVC050
     FM181900 31009G16KT P6SM BKN035
     FM182200 33006KT P6SM SCT050 OVC100=



000
FTUS41 KGYX 180916 AAA
TAFPWM
TAF AMD
KPWM 180916Z 1809/1906 30004KT P6SM -SN OVC025
     FM181300 30009KT P6SM -RA OVC025
     FM181700 31010G17KT P6SM BKN040
     FM190300 31008KT P6SM OVC100=



000
FTUS41 KGYX 180916 AAA
TAFAUG
TAF AMD
KAUG 180916Z 1809/1906 33008KT 5SM -SN BR OVC007
      TEMPO 1809/1813 6SM -SN BR SCT006 OVC020
     FM181300 32006KT 3SM BR OVC015
     FM181700 30010G18KT P6SM BKN035
     FM182100 31008KT P6SM OVC050=



000
FTUS41 KGYX 180916 AAA
TAFCON
TAF AMD
KCON 180916Z 1809/1906 29009KT P6SM -RA BKN025 OVC060
     FM181100 30009KT 4SM BR SCT025 OVC050
     FM181300 30010KT P6SM OVC050
     FM181700 30010G17KT P6SM BKN050
     FM190200 30006KT P6SM OVC100=



000
FTUS41 KGYX 180916 AAA
TAFPSM
TAF AMD
KPSM 180916Z 1809/1906 27010KT P6SM -RA SCT006 BKN015 OVC030
      TEMPO 1809/1813 BKN007
     FM181300 29010G18KT P6SM BKN050
     FM182100 29009KT P6SM SCT050 BKN100=



000
FTUS41 KGYX 180633 AAA
TAFLEB
TAF AMD
KLEB 180633Z 1807/1906 00000KT 2SM BR OVC025
     FM180800 VRB03KT 2SM -SHSN OVC020
     FM181200 30007G12KT 4SM BR OVC050
     FM181400 32005KT 6SM BR OVC050
     FM181900 31009G16KT P6SM BKN035
     FM182200 33006KT P6SM SCT050 OVC100=



000
FTUS41 KGYX 180520
TAFLEB
TAF
KLEB 180520Z 1806/1906 00000KT 2SM BR FEW015 SCT035 OVC060
     FM180800 VRB03KT 2SM -SHSN OVC020
     FM181200 30007G12KT 4SM BR OVC050
     FM181400 32005KT 6SM BR OVC050
     FM181900 31009G16KT P6SM BKN035
     FM182200 33006KT P6SM SCT050 OVC100=



000
FTUS41 KGYX 180520
TAFPSM
TAF
KPSM 180520Z 1806/1906 27010KT P6SM BKN040 OVC070
     FM180800 30008KT P6SM -SHRASN OVC035
     FM181400 29010G18KT P6SM BKN050
     FM182100 29009KT P6SM SCT050 BKN100=



000
FTUS41 KGYX 180520
TAFCON
TAF
KCON 180520Z 1806/1906 29009KT P6SM -RA BKN035
     FM180900 30009KT 4SM BR SCT025 OVC050
     FM181300 30010KT P6SM OVC050
     FM181700 30010G17KT P6SM BKN050
     FM190200 30006KT P6SM OVC100=



000
FTUS41 KGYX 180520
TAFAUG
TAF
KAUG 180520Z 1806/1906 33008KT 4SM BR VCSH BKN007 OVC012
     FM180700 33008KT 4SM -SN BR OVC007
     FM181300 32006KT 3SM BR OVC015
     FM181700 30010G18KT P6SM BKN035
     FM182100 31008KT P6SM OVC050=



000
FTUS41 KGYX 180520
TAFPWM
TAF
KPWM 180520Z 1806/1906 32004KT P6SM VCSH FEW025 BKN040
     FM180900 30010KT 4SM -RASN BR OVC025
     FM181700 31010G17KT P6SM BKN040
     FM190300 31008KT P6SM OVC100=



000
FTUS41 KGYX 180421 AAI
TAFLEB
TAF AMD
KLEB 180421Z 1804/1824 VRB03KT 4SM BR SCT001 OVC035
     FM180600 VRB03KT 3SM -SHSN BR OVC020
     FM181200 31009G17KT 3SM BR OVC025
     FM181900 31010G20KT P6SM BKN035=



000
FTUS41 KGYX 180413 AAH
TAFLEB
TAF AMD
KLEB 180413Z 1804/1824 VRB03KT 1 1/2SM BR SCT001 OVC035
     FM180500 VRB03KT 3SM -SHSN BR OVC020
     FM181200 31009G17KT 3SM BR OVC025
     FM181900 31010G20KT P6SM BKN035=



000
FTUS41 KGYX 180345 AAG
TAFLEB
TAF AMD
KLEB 180345Z 1804/1824 VRB03KT 3SM BR OVC035
     FM180500 VRB03KT 3SM -SHSN BR OVC020
     FM181200 31009G17KT 3SM BR OVC025
     FM181900 31010G20KT P6SM BKN035=



000
FTUS41 KGYX 180345 AAG
TAFLEB
TAF AMD
KLEB 180345Z 1804/1824 VRB03KT 3SM BR OVC035
     FM180500 VRB03KT 3SM -SHSN BR OVC020
     FM181200 31009G17KT 3SM BR OVC025
     FM181900 31010G20KT P6SM BKN035=



000
FTUS41 KGYX 180319 AAF
TAFLEB
TAF AMD
KLEB 180319Z 1803/1824 VRB03KT 3/4SM BR OVC035
     FM180500 VRB03KT 3SM -SHSN BR OVC020
     FM181200 31009G17KT 3SM BR OVC025
     FM181900 31010G20KT P6SM BKN035=



000
FTUS41 KGYX 180311 AAE
TAFLEB
TAF AMD
KLEB 180311Z 1803/1824 VRB03KT 1 1/2SM BR OVC035
     FM180500 VRB03KT 3SM -SHSN BR OVC020
     FM181200 31009G17KT 3SM BR OVC025
     FM181900 31010G20KT P6SM BKN035=



000
FTUS41 KGYX 180311 AAB
TAFPSM
TAF AMD
KPSM 180311Z 1803/1824 28006KT P6SM OVC040
     FM180800 30008KT 5SM -SHRASN BR OVC030
     FM181400 30010G23KT P6SM BKN040=



000
FTUS41 KGYX 180307 AAD
TAFLEB
TAF AMD
KLEB 180307Z 1803/1824 VRB03KT P6SM OVC035
     FM180500 VRB03KT 3SM -SHSN BR OVC020
     FM181200 31009G17KT 3SM BR OVC025
     FM181900 31010G20KT P6SM BKN035=



000
FTUS41 KGYX 180103 AAC
TAFPWM
TAF AMD
KPWM 180103Z 1801/1824 36009KT 6SM BR BKN012 OVC025
     FM181200 30010G17KT 3SM -RASN BR OVC015
     FM181700 31010G20KT P6SM BKN040=



000
FTUS41 KGYX 180102 AAC
TAFLEB
TAF AMD
KLEB 180102Z 1801/1824 VRB03KT 3SM BR OVC035
     FM180300 VRB03KT 2SM -SHSN BR OVC012
     FM181200 31009G17KT 3SM BR OVC025
     FM181900 31010G20KT P6SM BKN035=



000
FTUS41 KGYX 180100 AAB
TAFPWM
TAF AMD
KPWM 180100Z 1801/1824 36009KT 6SM BR OVC025
     FM181200 30010G17KT 3SM -RASN BR OVC015
     FM181700 31010G20KT P6SM BKN040=



000
FTUS41 KGYX 180100 AAA
TAFAUG
TAF AMD
KAUG 180100Z 1801/1824 36011KT 6SM BR SCT008 OVC025
     FM180300 34008KT 3SM -RASN BR OVC008
     FM180600 34007KT 2SM -SN OVC007
     FM181800 30010G23KT P6SM BKN040=



000
FTUS41 KGYX 180058 AAA
TAFPSM
TAF AMD
KPSM 180058Z 1801/1824 28006KT 6SM BR SCT004 OVC012
     FM180800 30008KT 5SM -SHRASN BR OVC025
     FM181400 30010G23KT P6SM BKN040=



000
FTUS41 KGYX 180002 AAB
TAFLEB
TAF AMD
KLEB 180002Z 1800/1824 VRB03KT 3SM -RAPL BR OVC025
     FM180200 VRB03KT 2SM -SHSN BR OVC012
     FM181200 31009G17KT 3SM BR OVC025
     FM181900 31010G20KT P6SM BKN035=



000
FTUS41 KGYX 180002 AAA
TAFPWM
TAF AMD
KPWM 180002Z 1800/1824 36013KT 6SM -RA BR OVC030
     FM181200 30010G17KT 3SM -RASN BR OVC015
     FM181700 31010G20KT P6SM BKN040=



000
FTUS41 KGYX 172329 AAA
TAFLEB
TAF AMD
KLEB 172329Z 1723/1824 00000KT 3SM -DZ BR BKN002 OVC025
     FM180200 VRB03KT 2SM -SHSN BR OVC012
     FM181200 31009G17KT 3SM BR OVC025
     FM181900 31010G20KT P6SM BKN035=



000
FTUS41 KGYX 172324
TAFCON
TAF
KCON 172324Z 1800/1824 30007KT P6SM OVC025
     FM180500 30008KT 5SM -SHRASN BR OVC025
     FM181400 30010G23KT P6SM BKN040=



000
FTUS41 KGYX 172324
TAFPWM
TAF
KPWM 172324Z 1800/1824 33013KT 3SM -RA BR OVC010
     FM181200 30010G17KT 3SM -RASN BR OVC015
     FM181700 31010G20KT P6SM BKN040=



000
FTUS41 KGYX 172324
TAFPSM
TAF
KPSM 172324Z 1800/1824 29007KT 3SM -RA BR OVC003
     FM180800 30008KT 5SM -SHRASN BR OVC025
     FM181400 30010G23KT P6SM BKN040=



000
FTUS41 KGYX 172324
TAFLEB
TAF
KLEB 172324Z 1800/1824 00000KT 3SM -DZ BR SCT001 OVC025
     FM180200 VRB03KT 2SM -SHSN BR OVC012
     FM181200 31009G17KT 3SM BR OVC025
     FM181900 31010G20KT P6SM BKN035=



000
FTUS41 KGYX 172324
TAFAUG
TAF
KAUG 172324Z 1800/1824 34012KT 3SM -PLRA BR OVC004
     FM180300 34008KT 2SM -RASN BR OVC007
     FM180600 34007KT 2SM -SN OVC007
     FM181800 30010G23KT P6SM BKN040=



000
FTUS41 KGYX 172309 AAB
TAFPWM
TAF AMD
KPWM 172309Z 1723/1818 33013KT 3SM -RA BR OVC010
     FM181200 30010G17KT 3SM -RASN BR OVC015
     FM181700 31010G20KT P6SM BKN040=



000
FTUS41 KGYX 172247 AAA
TAFAUG
TAF AMD
KAUG 172247Z 1723/1818 34012KT 3SM -PLRA BR OVC004
     FM180300 34008KT 2SM -RASN BR OVC007
     FM180600 34007KT 2SM -SN OVC007=



000
FTUS41 KGYX 172159 AAB
TAFLEB
TAF AMD
KLEB 172159Z 1722/1818 00000KT 2SM -DZ BR BKN003 OVC020
     FM172300 34002KT 2SM -SHSN BR OVC007
     FM180300 30005KT 2SM -SN BR OVC012=



000
FTUS41 KGYX 172159 AAB
TAFLEB
TAF AMD
KLEB 172159Z 1722/1818 00000KT 2SM -DZ BR BKN003 OVC020
     FM172300 34002KT 2SM -SHSN BR OVC007
     FM180300 30005KT 2SM -SN BR OVC012=



000
FTUS41 KGYX 172138 AAA
TAFPWM
TAF AMD
KPWM 172138Z 1722/1818 33013KT 1 1/2SM -RA BR OVC008
     FM172330 33010KT 3SM -RA BR OVC007
     FM180400 32009KT 4SM -RA BR OVC012=



000
FTUS41 KGYX 172138 AAA
TAFPSM
TAF AMD
KPSM 172138Z 1722/1818 32012KT 6SM -RA BR OVC015
     FM172330 30006KT 5SM -SHRA BR OVC015=



000
FTUS41 KGYX 171949 AAA
TAFLEB
TAF AMD
KLEB 171949Z 1720/1818 00000KT 3SM -DZ BR SCT002 OVC015
     FM172100 34002KT 2SM -SHSN BR OVC007
     FM180300 30005KT 2SM -SN BR OVC012=



000
FTUS41 KGYX 171831 AAA
TAFCON
TAF AMD
KCON 171831Z 1719/1818 32007KT P6SM SCT012 BKN035
     FM172100 31006KT 4SM -SHRA BR OVC025
     FM180300 30007KT 4SM -SHRASN BR OVC025=



000
FTUS41 KGYX 171720
TAFPWM
TAF
KPWM 171720Z 1718/1818 33010KT 2SM -RA BR OVC004
     FM171830 33010KT 3SM -RA BR OVC007
     FM180400 32009KT 4SM -RA BR OVC012=



000
FTUS41 KGYX 171720
TAFCON
TAF
KCON 171720Z 1718/1818 32007KT 3SM -RA BR BKN009 OVC015
     FM171900 32006KT 3SM -DZ BR OVC012
     FM172100 31006KT 4SM -SHRA BR OVC025
     FM180300 30007KT 4SM -SHRASN BR OVC025=



000
FTUS41 KGYX 171720
TAFPSM
TAF
KPSM 171720Z 1718/1818 32010KT 3SM -RA BR OVC006
     FM171900 32008KT 3SM -DZ BR OVC007
     FM172100 30006KT 5SM -SHRA BR OVC015=



000
FTUS41 KGYX 171720
TAFLEB
TAF
KLEB 171720Z 1718/1818 00000KT 1SM -DZ BR OVC002
     FM172100 34002KT 2SM -SN BR OVC007
     FM180300 30005KT 2SM -SN BR OVC012=



000
FTUS41 KGYX 171720
TAFAUG
TAF
KAUG 171720Z 1718/1818 01008KT 2SM -RA BR OVC003
     FM180300 34008KT 2SM -RASN BR OVC007
     FM180600 34007KT 2SM -SN OVC007=



000
FTUS41 KGYX 171606 AAB
TAFLEB
TAF AMD
KLEB 171606Z 1716/1812 00000KT 3SM -RA BR SCT003 OVC007
     FM171800 00000KT 3SM -RA BR OVC007
     FM172000 34002KT 3SM -RA BR OVC015
     FM180300 30005KT 1 1/2SM -SN BR OVC015=



000
FTUS41 KGYX 171528 AAB
TAFCON
TAF AMD
KCON 171528Z 1715/1812 32007KT 3SM -RA BR SCT009 OVC015
     FM171800 32006KT 2SM -RA BR OVC012
     FM172000 31006KT 4SM -RA BR OVC025=



000
FTUS41 KGYX 171511 AAA
TAFLEB
TAF AMD
KLEB 171511Z 1715/1812 00000KT 3SM -RA BR OVC003
     FM171800 00000KT 3SM -RA BR OVC007
     FM172000 34002KT 3SM -RA BR OVC015
     FM180300 30005KT 1 1/2SM -SN BR OVC015=



000
FTUS41 KGYX 171334 AAA
TAFCON
TAF AMD
KCON 171334Z 1714/1812 32007KT 3SM -RA BR SCT004 OVC009
     FM171500 33004KT 1 1/2SM -RA BR OVC005
     FM171800 32006KT 2SM -RA BR OVC008
     FM172000 31006KT 4SM -RA BR OVC025=



000
FTUS41 KGYX 171333 AAA
TAFAUG
TAF AMD
KAUG 171333Z 1714/1812 01006KT 1/2SM -RA FG VV003
     FM171800 36006KT 1/2SM -RA FG OVC005
     FM172200 35008KT 2SM -RA BR OVC007=



000
FTUS41 KGYX 171132
TAFLEB
TAF
KLEB 171132Z 1712/1812 00000KT 1SM -RA BR SCT001 OVC007
      TEMPO 1712/1714 2SM BR OVC001
     FM171500 00000KT 1 1/2SM -RA BR OVC007
     FM172000 34002KT 3SM -RA BR OVC015
     FM180300 30005KT 1 1/2SM -SN BR OVC015=



000
FTUS41 KGYX 171132
TAFCON
TAF
KCON 171132Z 1712/1812 31004KT 3SM -RA BR OVC004
     FM171500 33004KT 1 1/2SM -RA BR OVC005
     FM171800 32006KT 2SM -RA BR OVC008
     FM172000 31006KT 4SM -RA BR OVC025=



000
FTUS41 KGYX 171132
TAFPWM
TAF
KPWM 171132Z 1712/1812 35005KT 1SM -RA BR OVC002
     FM171800 35006KT 2SM -RA BR OVC007
     FM172100 32007KT 4SM -RA BR OVC009
     FM180400 32009KT 4SM -RA BR OVC015=



000
FTUS41 KGYX 171132
TAFPSM
TAF
KPSM 171132Z 1712/1812 36005KT 3SM -RA BR OVC002
     FM171800 32008KT 4SM -RA BR OVC007
     FM172300 30006KT 6SM -RA BR OVC015=



000
FTUS41 KGYX 171132
TAFAUG
TAF
KAUG 171132Z 1712/1812 01005KT 1/2SM FG VV002
     FM171230 02005KT 1/4SM -RA FG VV001
     FM171500 01006KT 1/2SM -RA FG VV003
     FM171800 36006KT 1/2SM -RA FG OVC005
     FM172200 35008KT 2SM -RA BR OVC007=



000
FTUS41 KGYX 170943 AAA
TAFPSM
TAF AMD
KPSM 170943Z 1710/1806 36003KT 1/2SM -RA FG VV002
     FM171200 35005KT 1 1/2SM -RA BR OVC002
     FM171800 32008KT 4SM -RA BR OVC007
     FM172300 30006KT 6SM -RA BR OVC015=



000
FTUS41 KGYX 170943 AAA
TAFCON
TAF AMD
KCON 170943Z 1710/1806 31004KT 2SM -RA BR OVC003
     FM171500 33004KT 1 1/2SM -RA BR OVC005
     FM171800 32006KT 2SM -RA BR OVC008
     FM172000 31006KT 4SM -RA BR OVC025=



000
FTUS41 KGYX 170943 AAB
TAFLEB
TAF AMD
KLEB 170943Z 1710/1806 00000KT 1SM -DZ BR OVC003
      TEMPO 1710/1712 1/4SM FG VV001
     FM171300 17002KT 1/2SM -RA FG OVC003
     FM171500 00000KT 1 1/2SM -RA BR OVC007
     FM172000 34002KT 3SM -RA BR OVC015
     FM180300 30005KT 1 1/2SM -SN BR OVC015=



000
FTUS41 KGYX 170943 AAB
TAFAUG
TAF AMD
KAUG 170943Z 1710/1806 01005KT 1 1/2SM BR OVC004
     FM171200 02005KT 1/2SM -DZ FG OVC003
     FM171800 36006KT 1/2SM -RA FG OVC005
     FM172200 35008KT 2SM -RA BR OVC007=



000
FTUS41 KGYX 170943 AAA
TAFPWM
TAF AMD
KPWM 170943Z 1710/1806 36003KT 3SM BR OVC002
     FM171030 01005KT 1 1/2SM -RA BR OVC003
     FM171800 35006KT 2SM -RA BR OVC007
     FM172100 32007KT 4SM -RA BR OVC009
     FM180400 32009KT 4SM -RA BR OVC015=



000
FTUS41 KGYX 170802 AAA
TAFAUG
TAF AMD
KAUG 170802Z 1708/1806 04004KT 1 1/2SM BR OVC004
     FM171000 04003KT 1/2SM -DZ FG OVC003
     FM171800 36006KT 1/2SM -RA FG OVC005
     FM172200 35008KT 2SM -RA BR OVC007=



000
FTUS41 KGYX 170802 AAA
TAFAUG
TAF AMD
KAUG 170802Z 1708/1806 04004KT 1 1/2SM BR OVC004
     FM171000 04003KT 1/2SM -DZ FG OVC003
     FM171800 36006KT 1/2SM -RA FG OVC005
     FM172200 35008KT 2SM -RA BR OVC007=



000
FTUS41 KGYX 170800 AAA
TAFLEB
TAF AMD
KLEB 170800Z 1708/1806 00000KT 1SM -DZ BR OVC003
      TEMPO 1708/1712 1/4SM FG VV001
     FM171300 17002KT 1/2SM -RA FG OVC003
     FM171500 00000KT 1 1/2SM -RA BR OVC007
     FM172000 34002KT 3SM -RA BR OVC015
     FM180300 30005KT 1 1/2SM -SN BR OVC015=



000
FTUS41 KGYX 170800 AAA
TAFLEB
TAF AMD
KLEB 170800Z 1708/1806 00000KT 1SM -DZ BR OVC003
      TEMPO 1708/1712 1/4SM FG VV001
     FM171300 17002KT 1/2SM -RA FG OVC003
     FM171500 00000KT 1 1/2SM -RA BR OVC007
     FM172000 34002KT 3SM -RA BR OVC015
     FM180300 30005KT 1 1/2SM -SN BR OVC015=



000
FTUS41 KGYX 170520
TAFPWM
TAF
KPWM 170520Z 1706/1806 36003KT 3SM BR OVC003
     FM170700 04003KT 1 1/2SM -RA BR OVC003
     FM171800 35006KT 2SM -RA BR OVC007
     FM172100 32007KT 4SM -RA BR OVC009
     FM180400 32009KT 4SM -RA BR OVC015=



000
FTUS41 KGYX 170520
TAFPSM
TAF
KPSM 170520Z 1706/1806 36003KT 1 1/2SM -DZ BR OVC002
     FM171800 32008KT 4SM -RA BR OVC007
     FM172300 30006KT 6SM -RA BR OVC015=



000
FTUS41 KGYX 170520
TAFCON
TAF
KCON 170520Z 1706/1806 30004KT 1SM -RA BR OVC003
     FM171500 33004KT 1 1/2SM -RA BR OVC005
     FM171800 32006KT 2SM -RA BR OVC008
     FM172000 31006KT 4SM -RA BR OVC025=



000
FTUS41 KGYX 170520
TAFAUG
TAF
KAUG 170520Z 1706/1806 00000KT 1/2SM FG BKN012 OVC025
     FM170700 04003KT 1/4SM FG OVC007
     FM170900 04003KT 1/4SM -DZ FG OVC003
     FM171800 36006KT 1/2SM -RA FG OVC005
     FM172200 35008KT 2SM -RA BR OVC007=



000
FTUS41 KGYX 170520
TAFLEB
TAF
KLEB 170520Z 1706/1806 00000KT 2SM BR OVC007
     FM170800 00000KT 1 1/2SM -DZ BR OVC003
     FM171300 17002KT 1/2SM -RA FG OVC003
     FM171500 00000KT 1 1/2SM -RA BR OVC007
     FM172000 34002KT 3SM -RA BR OVC015
     FM180300 30005KT 1 1/2SM -SN BR OVC015=



000
FTUS41 KGYX 170423 AAC
TAFPWM
TAF AMD
KPWM 170423Z 1704/1724 VRB03KT 2SM -DZ BR OVC005
     FM170500 10004KT 3SM -DZ BR OVC005
     FM170600 06005KT 2SM -RA BR OVC003=



000
FTUS41 KGYX 170302 AAB
TAFPWM
TAF AMD
KPWM 170302Z 1703/1724 VRB03KT 3SM -DZ BR OVC010
     FM170500 10004KT 3SM -DZ BR OVC005
     FM170600 06005KT 2SM -RA BR OVC003=



000
FTUS41 KGYX 170147 AAA
TAFPSM
TAF AMD
KPSM 170147Z 1702/1724 VRB03KT 1 1/2SM -DZ BR OVC003
     FM170400 05005KT 2SM -RA BR OVC003
     FM171600 33005KT 3SM -RA BR OVC010=



000
FTUS41 KGYX 170146 AAA
TAFCON
TAF AMD
KCON 170146Z 1702/1724 VRB03KT 2SM -DZ BR OVC004
     FM170600 VRB03KT 2SM -RA BR OVC003
     FM171600 32004KT 4SM -RA BR OVC012=



000
FTUS41 KGYX 170145 AAA
TAFPWM
TAF AMD
KPWM 170145Z 1702/1724 VRB03KT 5SM -DZ BR OVC015
     FM170300 10004KT 3SM -DZ BR OVC005
     FM170600 06005KT 2SM -RA BR OVC003=



000
FTUS41 KGYX 162323
TAFPSM
TAF
KPSM 162323Z 1700/1724 VRB03KT 6SM -DZ BR OVC006
     FM170400 05005KT 2SM -RA BR OVC003
     FM171600 33005KT 3SM -RA BR OVC010=



000
FTUS41 KGYX 162323
TAFLEB
TAF
KLEB 162323Z 1700/1724 VRB03KT 2SM BR OVC012
     FM170100 VRB03KT 4SM -SHRA BR OVC005
     FM170500 VRB03KT 2SM -RA BR OVC003
     FM171600 32004KT 3SM -RA BR OVC008=



000
FTUS41 KGYX 162323
TAFAUG
TAF
KAUG 162323Z 1700/1724 VRB03KT 1/2SM -DZ FG OVC005
     FM170500 06004KT 1/2SM -RA FG VV002
     FM171500 04005KT 2SM -RA BR OVC003=



000
FTUS41 KGYX 162323
TAFCON
TAF
KCON 162323Z 1700/1724 VRB03KT P6SM OVC025
     FM170100 VRB03KT 4SM -DZ BR OVC010
     FM170600 VRB03KT 2SM -RA BR OVC003
     FM171600 32004KT 4SM -RA BR OVC012=



000
FTUS41 KGYX 162323
TAFPWM
TAF
KPWM 162323Z 1700/1724 VRB03KT 5SM -DZ BR OVC025
     FM170100 10004KT 3SM -DZ BR OVC005
     FM170600 06005KT 2SM -RA BR OVC003=



000
FTUS41 KGYX 162258 AAB
TAFAUG
TAF AMD
KAUG 162258Z 1623/1718 VRB03KT 1 1/2SM -DZ BR OVC005
     FM170500 06004KT 1/2SM -RA FG VV002
     FM171500 04005KT 2SM -RA BR OVC003=



000
FTUS41 KGYX 162240 AAA
TAFAUG
TAF AMD
KAUG 162240Z 1623/1718 VRB03KT 3SM -DZ BR SCT007 OVC015
     FM170500 06004KT 1/2SM -RA FG VV002
     FM171500 04005KT 2SM -RA BR OVC003=



000
FTUS41 KGYX 161733
TAFPWM
TAF
KPWM 161733Z 1618/1718 VRB03KT 5SM -DZ BR OVC012
     FM170100 10004KT 3SM -DZ BR OVC005
     FM170600 06005KT 2SM -RA BR OVC003=



000
FTUS41 KGYX 161733
TAFAUG
TAF
KAUG 161733Z 1618/1718 VRB03KT 2SM -DZ BR OVC004
     FM170500 06004KT 1/2SM -RA FG VV002
     FM171500 04005KT 2SM -RA BR OVC003=



000
FTUS41 KGYX 161733
TAFPSM
TAF
KPSM 161733Z 1618/1718 VRB03KT P6SM OVC020
     FM162200 09004KT 4SM -DZ BR OVC007
     FM170400 05005KT 2SM -RA BR OVC003
     FM171600 33005KT 3SM -RA BR OVC010=



000
FTUS41 KGYX 161733
TAFCON
TAF
KCON 161733Z 1618/1718 VRB03KT P6SM OVC015
     FM170100 VRB03KT 4SM -DZ BR OVC010
     FM170600 VRB03KT 2SM -RA BR OVC003
     FM171600 32004KT 4SM -RA BR OVC012=



000
FTUS41 KGYX 161733
TAFLEB
TAF
KLEB 161733Z 1618/1718 VRB03KT 5SM BR OVC010
     FM170100 VRB03KT 4SM -SHRA BR OVC005
     FM170500 VRB03KT 2SM -RA BR OVC003
     FM171600 32004KT 3SM -RA BR OVC008=



000
FTUS41 KGYX 161556 AAA
TAFPWM
TAF AMD
KPWM 161556Z 1616/1712 VRB03KT 6SM -DZ OVC012
     FM170100 10005KT 4SM -DZ BR OVC005
     FM170600 06005KT 2SM -RA BR OVC003=



000
FTUS41 KGYX 161556 AAA
TAFPWM
TAF AMD
KPWM 161556Z 1616/1712 VRB03KT 6SM -DZ OVC012
     FM170100 10005KT 4SM -DZ BR OVC005
     FM170600 06005KT 2SM -RA BR OVC003=



000
FTUS41 KGYX 161553 AAA
TAFLEB
TAF AMD
KLEB 161553Z 1616/1712 VRB03KT P6SM OVC005
      TEMPO 1617/1621 OVC015
     FM170100 VRB03KT 5SM -SHRA BR OVC005
     FM170600 VRB03KT 2SM -RA BR OVC003=



000
FTUS41 KGYX 161553 AAA
TAFLEB
TAF AMD
KLEB 161553Z 1616/1712 VRB03KT P6SM OVC005
      TEMPO 1617/1621 OVC015
     FM170100 VRB03KT 5SM -SHRA BR OVC005
     FM170600 VRB03KT 2SM -RA BR OVC003=



000
FTUS41 KGYX 161220 AAA
TAFPSM
TAF AMD
KPSM 161220Z 1612/1712 VRB03KT P6SM OVC019
     FM161500 10005KT 6SM BR OVC012
     FM170000 13005KT 4SM BR OVC010 PROB30 1703/1706 4SM -SHRA BR
      OVC005
     FM170600 13005KT 3SM -RA BR OVC005=



000
FTUS41 KGYX 161120
TAFPSM
TAF
KPSM 161120Z 1612/1712 07004KT P6SM OVC008
     FM161500 10005KT 6SM BR OVC012
     FM170000 13005KT 4SM BR OVC010 PROB30 1703/1706 4SM -SHRA BR
      OVC005
     FM170600 13005KT 3SM -RA BR OVC005=



000
FTUS41 KGYX 161120
TAFAUG
TAF
KAUG 161120Z 1612/1712 07004KT P6SM OVC010
     FM161500 10005KT 6SM BR OVC008
     FM170000 13005KT 4SM BR OVC007 PROB30 1703/1706 4SM -DZ BR
      OVC004
     FM170600 13005KT 3SM -RA BR OVC005=



000
FTUS41 KGYX 161120
TAFPWM
TAF
KPWM 161120Z 1612/1712 07004KT P6SM OVC010
     FM161500 12005KT P6SM OVC012
     FM162300 13004KT P6SM OVC007
     FM170100 13005KT 4SM BR OVC003 PROB30 1703/1706 4SM -SHRA BR
      OVC005
     FM170600 13005KT 3SM -RA BR OVC005=



000
FTUS41 KGYX 161120
TAFLEB
TAF
KLEB 161120Z 1612/1712 00000KT 2SM BR OVC007
     FM161400 00000KT 6SM BR OVC015
     FM170000 13005KT 4SM BR OVC010 PROB30 1703/1706 4SM -SHRA BR
      OVC005
     FM170600 13005KT 3SM -RA BR OVC005=



000
FTUS41 KGYX 161120
TAFCON
TAF
KCON 161120Z 1612/1712 07004KT P6SM OVC021
     FM161500 10005KT 6SM BR OVC012
     FM170000 13005KT 4SM BR OVC010 PROB30 1703/1706 4SM -SHRA BR
      OVC005
     FM170600 13005KT 3SM -RA BR OVC005=



000
FTUS41 KGYX 160945 AAA
TAFPWM
TAF AMD
KPWM 160945Z 1610/1706 03006KT P6SM OVC021
     FM161100 07004KT 5SM BR OVC010
     FM161500 12005KT P6SM OVC012
     FM162300 13004KT P6SM OVC007
     FM170100 13005KT 4SM BR OVC003 PROB30 1703/1706 4SM -SHRA BR
      OVC005=



000
FTUS41 KGYX 160945 AAA
TAFCON
TAF AMD
KCON 160945Z 1610/1706 03003KT P6SM OVC020
     FM161100 07004KT 5SM BR OVC012
     FM161500 10005KT 6SM BR OVC012
     FM170000 13005KT 4SM BR OVC010 PROB30 1703/1706 4SM -SHRA BR
      OVC005=



000
FTUS41 KGYX 160945 AAA
TAFPSM
TAF AMD
KPSM 160945Z 1610/1706 32003KT P6SM OVC023
     FM161100 07004KT 5SM BR OVC008
     FM161500 10005KT 6SM BR OVC012
     FM170000 13005KT 4SM BR OVC010 PROB30 1703/1706 4SM -SHRA BR
      OVC005=



000
FTUS41 KGYX 160945 AAA
TAFAUG
TAF AMD
KAUG 160945Z 1610/1706 07004KT 5SM BR OVC010
     FM161500 10005KT 6SM BR OVC008
     FM170000 13005KT 4SM BR OVC007 PROB30 1703/1706 4SM -DZ BR
      OVC004=



000
FTUS41 KGYX 160945 AAA
TAFLEB
TAF AMD
KLEB 160945Z 1610/1706 00000KT 2SM BR OVC007
     FM161400 00000KT 6SM BR OVC015
     FM170000 13005KT 4SM BR OVC010 PROB30 1703/1706 4SM -SHRA BR
      OVC005=



000
FTUS41 KGYX 160526
TAFLEB
TAF
KLEB 160526Z 1606/1706 00000KT P6SM OVC008
     FM160800 00000KT 2SM BR OVC007
     FM161400 00000KT 6SM BR OVC015
     FM170000 13005KT 4SM BR OVC010 PROB30 1703/1706 4SM -SHRA BR
      OVC005=



000
FTUS41 KGYX 160526
TAFAUG
TAF
KAUG 160526Z 1606/1706 00000KT P6SM OVC014
     FM160800 07004KT 5SM BR OVC010
     FM161500 10005KT 6SM BR OVC008
     FM170000 13005KT 4SM BR OVC007 PROB30 1703/1706 4SM -DZ BR
      OVC004=



000
FTUS41 KGYX 160526
TAFCON
TAF
KCON 160526Z 1606/1706 00000KT P6SM OVC016
     FM160800 03003KT P6SM OVC020
     FM161100 07004KT 5SM BR OVC012
     FM161500 10005KT 6SM BR OVC012
     FM170000 13005KT 4SM BR OVC010 PROB30 1703/1706 4SM -SHRA BR
      OVC005=



000
FTUS41 KGYX 160526
TAFPWM
TAF
KPWM 160526Z 1606/1706 03006KT P6SM OVC021
     FM161100 07004KT 5SM BR OVC010
     FM161500 12005KT P6SM OVC012
     FM162300 13004KT P6SM OVC007
     FM170100 13005KT 4SM BR OVC003 PROB30 1703/1706 4SM -SHRA BR
      OVC005=



000
FTUS41 KGYX 160526
TAFPSM
TAF
KPSM 160526Z 1606/1706 32003KT P6SM OVC023
     FM161100 07004KT 5SM BR OVC008
     FM161500 10005KT 6SM BR OVC012
     FM170000 13005KT 4SM BR OVC010 PROB30 1703/1706 4SM -SHRA BR
      OVC005=



000
FTUS41 KGYX 160142 AAA
TAFPWM
TAF AMD
KPWM 160142Z 1602/1624 VRB03KT P6SM SKC
     FM160230 01003KT P6SM BKN019
     FM161100 07004KT 4SM -DZ BR OVC007
     FM161500 12005KT 6SM BR OVC012=



000
FTUS41 KGYX 160123 AAA
TAFLEB
TAF AMD
KLEB 160123Z 1601/1624 VRB03KT P6SM OVC010
     FM160800 00000KT 2SM BR OVC007
     FM161400 00000KT 6SM BR OVC015=



000
FTUS41 KGYX 160123 AAA
TAFPSM
TAF AMD
KPSM 160123Z 1601/1624 VRB03KT P6SM BKN015
     FM161100 07004KT 5SM BR OVC008
     FM161500 10005KT 6SM BR OVC012=



000
FTUS41 KGYX 160048 AAA
TAFAUG
TAF AMD
KAUG 160048Z 1601/1624 03003KT P6SM OVC015
     FM160800 07004KT 5SM BR OVC010
     FM161500 10005KT 6SM BR OVC008=



000
FTUS41 KGYX 152325
TAFCON
TAF
KCON 152325Z 1600/1624 VRB03KT P6SM SKC
     FM160800 03003KT P6SM OVC020
     FM161100 07004KT 5SM BR OVC012
     FM161500 10005KT 6SM BR OVC012=



000
FTUS41 KGYX 152325
TAFPWM
TAF
KPWM 152325Z 1600/1624 VRB03KT P6SM SKC
     FM160700 03003KT P6SM OVC020
     FM161100 07004KT 4SM -DZ BR OVC007
     FM161500 12005KT 6SM BR OVC012=



000
FTUS41 KGYX 152325
TAFPSM
TAF
KPSM 152325Z 1600/1624 VRB03KT P6SM SKC
     FM160800 03003KT P6SM OVC025
     FM161100 07004KT 5SM BR OVC008
     FM161500 10005KT 6SM BR OVC012=



000
FTUS41 KGYX 152325
TAFAUG
TAF
KAUG 152325Z 1600/1624 VRB03KT P6SM SKC
     FM160200 03003KT P6SM OVC020
     FM161100 07004KT 5SM BR OVC012
     FM161500 10005KT 6SM BR OVC008=



000
FTUS41 KGYX 152325
TAFLEB
TAF
KLEB 152325Z 1600/1624 VRB03KT 6SM BR OVC012
     FM161000 00000KT 2SM BR OVC008
     FM161400 00000KT 6SM BR OVC015=



    US Dept of Commerce
    National Oceanic and Atmospheric Administration
    National Weather Service
    1325 East West Highway
    Silver Spring, MD 20910
    Page Author: NWS Internet Services Team
Disclaimer
Information Quality
Credits
Glossary
Privacy Policy
Freedom of Information Act (FOIA)
About Us
Career Opportunities